createdAt,value
2015-11-21T00:00:31.899Z,89.8
2015-11-21T00:01:31.856Z,89.8
2015-11-21T00:02:31.780Z,90.5
2015-11-21T00:03:31.736Z,91
2015-11-21T00:04:31.676Z,91
2015-11-21T00:05:31.617Z,91.4
2015-11-21T00:06:31.572Z,91.6
2015-11-21T00:07:31.762Z,92.2
2015-11-21T00:08:31.453Z,92.1
2015-11-21T00:09:31.378Z,91.8
2015-11-21T00:10:31.395Z,91.5
2015-11-21T00:11:31.273Z,91.9
2015-11-21T00:12:31.228Z,92.1
2015-11-21T00:13:31.154Z,91.6
2015-11-21T00:14:31.109Z,92.2
2015-11-21T00:15:31.050Z,92.4
2015-11-21T00:16:30.989Z,92.4
2015-11-21T00:17:30.930Z,91.9
2015-11-21T00:18:30.870Z,92
2015-11-21T00:19:30.811Z,92.2
2015-11-21T00:20:30.766Z,92.4
2015-11-21T00:21:30.722Z,92.2
2015-11-21T00:22:30.647Z,92.3
2015-11-21T00:23:30.650Z,92.2
2015-11-21T00:24:30.544Z,91.7
2015-11-21T00:25:30.483Z,91.8
2015-11-21T00:26:30.424Z,92
2015-11-21T00:27:30.364Z,92.4
2015-11-21T00:28:30.304Z,92.6
2015-11-21T00:29:30.260Z,92.3
2015-11-21T00:30:30.200Z,92.5
2015-11-21T00:31:30.140Z,92.5
2015-11-21T00:32:30.080Z,92.5
2015-11-21T00:33:30.083Z,92.7
2015-11-21T00:34:29.974Z,92.8
2015-11-21T00:35:29.913Z,92.8
2015-11-21T00:36:30.057Z,93
2015-11-21T00:37:29.810Z,93
2015-11-21T00:38:29.750Z,92.8
2015-11-21T00:39:29.674Z,93
2015-11-21T00:40:29.615Z,93.2
2015-11-21T00:41:29.570Z,93.4
2015-11-21T00:42:29.526Z,93.3
2015-11-21T00:43:29.451Z,93.1
2015-11-21T00:44:29.407Z,93.2
2015-11-21T00:45:29.581Z,93.4
2015-11-21T00:46:29.287Z,93.2
2015-11-21T00:47:29.228Z,93.2
2015-11-21T00:48:29.183Z,93.3
2015-11-21T00:49:29.139Z,92.8
2015-11-21T00:50:29.111Z,92.6
2015-11-21T00:51:29.004Z,93
2015-11-21T00:52:28.944Z,93
2015-11-21T00:53:28.915Z,93.1
2015-11-21T00:54:28.840Z,92.8
2015-11-21T00:55:28.781Z,93
2015-11-21T00:56:28.721Z,93.2
2015-11-21T00:57:28.676Z,93.2
2015-11-21T00:58:28.617Z,93.2
2015-11-21T00:59:28.556Z,92.9
2015-11-21T01:00:28.497Z,93
2015-11-21T01:01:28.453Z,92.5
2015-11-21T01:02:28.394Z,92.2
2015-11-21T01:03:28.333Z,92.2
2015-11-21T01:04:28.306Z,92.3
2015-11-21T01:05:28.231Z,92.4
2015-11-21T01:06:28.186Z,92.4
2015-11-21T01:07:28.158Z,92.7
2015-11-21T01:08:28.081Z,92.6
2015-11-21T01:09:28.022Z,92.8
2015-11-21T01:10:27.962Z,92.6
2015-11-21T01:11:27.886Z,92.5
2015-11-21T01:12:27.858Z,92.7
2015-11-21T01:13:27.799Z,92.7
2015-11-21T01:14:27.958Z,92.8
2015-11-21T01:15:27.680Z,92.8
2015-11-21T01:16:27.603Z,92.9
2015-11-21T01:17:27.560Z,92.5
2015-11-21T01:18:27.499Z,92.5
2015-11-21T01:19:27.674Z,92.4
2015-11-21T01:20:27.396Z,92.3
2015-11-21T01:21:27.336Z,91.7
2015-11-21T01:22:55.683Z,91.9
2015-11-21T01:23:27.232Z,91.6
2015-11-21T01:24:27.187Z,91.7
2015-11-21T01:25:27.112Z,92.4
2015-11-21T01:26:27.068Z,92.8
2015-11-21T01:27:27.009Z,93.2
2015-11-21T01:28:26.949Z,93.6
2015-11-21T01:29:26.905Z,94
2015-11-21T01:30:26.845Z,94.1
2015-11-21T01:31:26.785Z,94.1
2015-11-21T01:32:26.726Z,94.1
2015-11-21T01:33:26.666Z,94.1
2015-11-21T01:34:26.606Z,93.7
2015-11-21T01:35:26.562Z,93.8
2015-11-21T01:36:26.518Z,93.1
2015-11-21T01:37:26.443Z,93.3
2015-11-21T01:38:26.398Z,93.3
2015-11-21T01:39:26.323Z,93.6
2015-11-21T01:40:26.278Z,93.6
2015-11-21T01:41:26.231Z,93.3
2015-11-21T01:42:26.171Z,92.8
2015-11-21T01:43:26.096Z,92.9
2015-11-21T01:44:26.052Z,92.5
2015-11-21T01:45:25.993Z,92.4
2015-11-21T01:46:25.932Z,92.2
2015-11-21T01:47:25.873Z,93
2015-11-21T01:48:25.829Z,93.1
2015-11-21T01:49:25.769Z,92.8
2015-11-21T01:50:25.709Z,93
2015-11-21T01:51:25.867Z,93.5
2015-11-21T01:52:25.839Z,93.3
2015-11-21T01:53:25.545Z,93.6
2015-11-21T01:54:25.486Z,93.3
2015-11-21T01:55:25.426Z,93.2
2015-11-21T01:56:25.382Z,93.3
2015-11-21T01:57:25.322Z,93.6
2015-11-21T01:58:25.262Z,93.4
2015-11-21T01:59:25.218Z,93
2015-11-21T02:00:25.142Z,92.9
2015-11-21T02:01:25.098Z,93.2
2015-11-21T02:02:24.883Z,93.1
2015-11-21T02:03:24.979Z,93.3
2015-11-21T02:04:24.920Z,93.2
2015-11-21T02:05:24.125Z,93.2
2015-11-21T02:06:24.815Z,93.3
2015-11-21T02:07:24.771Z,93.3
2015-11-21T02:08:24.789Z,93.3
2015-11-21T02:09:24.652Z,93.6
2015-11-21T02:10:24.591Z,93.7
2015-11-21T02:11:24.532Z,93.6
2015-11-21T02:12:24.488Z,93
2015-11-21T02:13:24.427Z,93
2015-11-21T02:14:24.383Z,93.1
2015-11-21T02:15:24.308Z,92.9
2015-11-21T02:16:24.264Z,92.5
2015-11-21T02:17:24.236Z,92.4
2015-11-21T02:18:24.160Z,92.8
2015-11-21T02:19:24.116Z,93.2
2015-11-21T02:20:24.041Z,92.9
2015-11-21T02:21:23.981Z,92.8
2015-11-21T02:22:23.922Z,92.6
2015-11-21T02:23:23.877Z,93.2
2015-11-21T02:24:23.818Z,92.6
2015-11-21T02:25:23.757Z,92.2
2015-11-21T02:26:23.698Z,92.2
2015-11-21T02:27:23.638Z,92.3
2015-11-21T02:28:23.593Z,92.8
2015-11-21T02:29:23.534Z,92.6
2015-11-21T02:30:23.474Z,92.3
2015-11-21T02:31:23.429Z,92.8
2015-11-21T02:32:23.371Z,92.3
2015-11-21T02:33:23.310Z,92.7
2015-11-21T02:34:23.251Z,92.8
2015-11-21T02:35:23.207Z,92.4
2015-11-21T02:36:23.147Z,92.6
2015-11-21T02:37:23.103Z,92.9
2015-11-21T02:38:23.043Z,93.2
2015-11-21T02:39:22.968Z,93.2
2015-11-21T02:40:22.924Z,92.5
2015-11-21T02:41:22.848Z,92.6
2015-11-21T02:42:22.835Z,92.8
2015-11-21T02:43:22.745Z,92.9
2015-11-21T02:44:22.685Z,93
2015-11-21T02:45:22.640Z,93
2015-11-21T02:46:22.596Z,93.2
2015-11-21T02:47:22.599Z,92.8
2015-11-21T02:48:22.461Z,92.5
2015-11-21T02:49:22.417Z,92.7
2015-11-21T02:50:22.354Z,92.6
2015-11-21T02:51:22.529Z,92.9
2015-11-21T02:52:22.250Z,92.5
2015-11-21T02:53:22.175Z,92.2
2015-11-21T02:54:22.115Z,92.1
2015-11-21T02:55:22.071Z,92.1
2015-11-21T02:56:22.042Z,92.5
2015-11-21T02:57:22.186Z,92.1
2015-11-21T02:58:21.892Z,92.4
2015-11-21T02:59:21.083Z,92.5
2015-11-21T03:00:21.772Z,92.6
2015-11-21T03:01:21.713Z,92.4
2015-11-21T03:02:21.669Z,92.1
2015-11-21T03:03:21.608Z,91.9
2015-11-21T03:04:21.564Z,92
2015-11-21T03:05:21.489Z,92.4
2015-11-21T03:06:21.477Z,92.1
2015-11-21T03:07:21.369Z,92.2
2015-11-21T03:08:21.325Z,92.2
2015-11-21T03:09:21.265Z,91.6
2015-11-21T03:10:21.205Z,91.5
2015-11-21T03:11:21.146Z,92
2015-11-21T03:12:21.086Z,91.1
2015-11-21T03:13:21.042Z,91.3
2015-11-21T03:14:21.216Z,91.4
2015-11-21T03:15:20.939Z,91.6
2015-11-21T03:16:20.957Z,90.9
2015-11-21T03:17:20.881Z,90.9
2015-11-21T03:18:20.759Z,91.2
2015-11-21T03:19:20.699Z,91.3
2015-11-21T03:20:20.639Z,90.2
2015-11-21T03:21:20.580Z,90.1
2015-11-21T03:22:20.535Z,90.6
2015-11-21T03:23:20.710Z,90.5
2015-11-21T03:24:20.431Z,90.9
2015-11-21T03:25:20.591Z,90.5
2015-11-21T03:26:20.312Z,90.1
2015-11-21T03:27:20.236Z,90.2
2015-11-21T03:28:20.177Z,89.8
2015-11-21T03:29:20.164Z,90.1
2015-11-21T03:30:20.073Z,90.4
2015-11-21T03:31:20.013Z,89.6
2015-11-21T03:32:19.953Z,90
2015-11-21T03:33:19.909Z,90.4
2015-11-21T03:34:19.849Z,89.7
2015-11-21T03:35:19.789Z,89.5
2015-11-21T03:36:19.730Z,90.2
2015-11-21T03:37:19.686Z,90.4
2015-11-21T03:38:19.610Z,90.4
2015-11-21T03:39:19.550Z,89.9
2015-11-21T03:40:19.506Z,89.7
2015-11-21T03:41:19.447Z,90.1
2015-11-21T03:42:19.403Z,90
2015-11-21T03:43:19.328Z,89.8
2015-11-21T03:44:19.283Z,90
2015-11-21T03:45:19.224Z,89.9
2015-11-21T03:46:19.179Z,90.1
2015-11-21T03:47:19.119Z,89.9
2015-11-21T03:48:19.059Z,89.5
2015-11-21T03:49:19.015Z,89.4
2015-11-21T03:50:18.955Z,89.3
2015-11-21T03:51:18.895Z,90.1
2015-11-21T03:52:18.817Z,89.7
2015-11-21T03:53:18.789Z,89.5
2015-11-21T03:54:18.713Z,89.4
2015-11-21T03:55:18.685Z,89.5
2015-11-21T03:56:19.000Z,88.8
2015-11-21T03:57:18.550Z,89.1
2015-11-21T03:58:18.725Z,89.3
2015-11-21T03:59:18.431Z,88.4
2015-11-21T04:00:18.387Z,87.9
2015-11-21T04:01:18.311Z,87.7
2015-11-21T04:02:18.267Z,88.4
2015-11-21T04:03:18.208Z,88.2
2015-11-21T04:04:18.397Z,88.3
2015-11-21T04:05:18.103Z,88.6
2015-11-21T04:06:17.293Z,88.7
2015-11-21T04:07:17.999Z,88.9
2015-11-21T04:08:17.924Z,88.7
2015-11-21T04:09:17.863Z,88.5
2015-11-21T04:10:17.804Z,88.8
2015-11-21T04:11:17.760Z,88.7
2015-11-21T04:12:17.700Z,88.7
2015-11-21T04:13:17.641Z,88.4
2015-11-21T04:14:17.596Z,88.4
2015-11-21T04:15:17.583Z,88.5
2015-11-21T04:16:17.477Z,88.5
2015-11-21T04:17:17.432Z,88.3
2015-11-21T04:18:17.357Z,88.6
2015-11-21T04:19:17.298Z,88.9
2015-11-21T04:20:17.488Z,88.9
2015-11-21T04:21:17.193Z,88.6
2015-11-21T04:22:17.134Z,89
2015-11-21T04:23:17.074Z,88.7
2015-11-21T04:24:17.061Z,89
2015-11-21T04:25:16.970Z,88.3
2015-11-21T04:26:16.926Z,88.5
2015-11-21T04:27:16.882Z,88.5
2015-11-21T04:28:16.807Z,88.8
2015-11-21T04:29:16.746Z,87.9
2015-11-21T04:30:16.687Z,88.2
2015-11-21T04:31:16.627Z,87.8
2015-11-21T04:32:16.615Z,87.8
2015-11-21T04:33:16.524Z,88.3
2015-11-21T04:34:16.698Z,89.1
2015-11-21T04:35:16.403Z,89.1
2015-11-21T04:36:16.359Z,89.7
2015-11-21T04:37:16.300Z,89
2015-11-21T04:38:16.271Z,89.4
2015-11-21T04:39:16.196Z,89.4
2015-11-21T04:40:16.214Z,89.7
2015-11-21T04:41:16.076Z,89.8
2015-11-21T04:42:16.017Z,89.7
2015-11-21T04:43:15.957Z,90
2015-11-21T04:44:16.148Z,89.6
2015-11-21T04:45:15.853Z,89.8
2015-11-21T04:46:15.793Z,89.4
2015-11-21T04:47:15.765Z,89.9
2015-11-21T04:48:15.674Z,89.7
2015-11-21T04:49:15.645Z,89.6
2015-11-21T04:50:15.553Z,89.7
2015-11-21T04:51:15.494Z,89.7
2015-11-21T04:52:15.450Z,89.7
2015-11-21T04:53:15.390Z,90
2015-11-21T04:54:15.564Z,90.2
2015-11-21T04:55:15.271Z,90.2
2015-11-21T04:56:15.211Z,90.2
2015-11-21T04:57:15.149Z,90.3
2015-11-21T04:58:15.105Z,90.1
2015-11-21T04:59:15.044Z,90.6
2015-11-21T05:00:14.985Z,91.1
2015-11-21T05:01:14.925Z,91.4
2015-11-21T05:02:14.865Z,91.3
2015-11-21T05:03:14.821Z,90.7
2015-11-21T05:04:14.760Z,90.6
2015-11-21T05:05:14.717Z,90.9
2015-11-21T05:06:14.641Z,90.9
2015-11-21T05:07:14.597Z,91
2015-11-21T05:08:14.568Z,91.3
2015-11-21T05:09:14.478Z,91.4
2015-11-21T05:10:14.434Z,91.2
2015-11-21T05:11:14.358Z,90.7
2015-11-21T05:12:14.315Z,90.9
2015-11-21T05:13:14.255Z,91.3
2015-11-21T05:14:14.210Z,91.1
2015-11-21T05:15:14.151Z,90.8
2015-11-21T05:16:14.090Z,90.1
2015-11-21T05:17:14.031Z,90.6
2015-11-21T05:18:13.971Z,90.8
2015-11-21T05:19:13.926Z,91
2015-11-21T05:20:14.086Z,91
2015-11-21T05:21:13.792Z,90.6
2015-11-21T05:22:13.748Z,89.8
2015-11-21T05:23:13.703Z,90.5
2015-11-21T05:24:13.676Z,90.7
2015-11-21T05:25:13.600Z,90
2015-11-21T05:26:13.524Z,90
2015-11-21T05:27:13.308Z,90.3
2015-11-21T05:28:13.421Z,89.9
2015-11-21T05:29:13.345Z,89.7
2015-11-21T05:30:13.316Z,90
2015-11-21T05:31:13.242Z,89.9
2015-11-21T05:32:13.182Z,89.5
2015-11-21T05:33:13.372Z,89.4
2015-11-21T05:34:13.078Z,89.3
2015-11-21T05:35:13.017Z,89
2015-11-21T05:36:12.958Z,89.3
2015-11-21T05:37:12.898Z,89
2015-11-21T05:38:12.870Z,89
2015-11-21T05:39:12.888Z,88.9
2015-11-21T05:40:12.750Z,89.3
2015-11-21T05:41:12.675Z,88.9
2015-11-21T05:42:12.865Z,88.7
2015-11-21T05:43:12.570Z,88.7
2015-11-21T05:44:12.527Z,88.7
2015-11-21T05:45:12.466Z,89.1
2015-11-21T05:46:12.828Z,89.5
2015-11-21T05:47:12.347Z,89.1
2015-11-21T05:48:12.288Z,89.6
2015-11-21T05:49:12.228Z,89.5
2015-11-21T05:50:12.184Z,89.1
2015-11-21T05:51:12.202Z,88.6
2015-11-21T05:52:12.064Z,89
2015-11-21T05:53:12.238Z,88.7
2015-11-21T05:54:11.944Z,88.6
2015-11-21T05:55:12.072Z,88.7
2015-11-21T05:56:11.841Z,88.6
2015-11-21T05:57:11.780Z,88.4
2015-11-21T05:58:12.143Z,88.8
2015-11-21T05:59:11.677Z,88.7
2015-11-21T06:00:11.648Z,87.9
2015-11-21T06:01:11.558Z,87.8
2015-11-21T06:02:11.716Z,88.3
2015-11-21T06:03:11.451Z,88.5
2015-11-21T06:04:11.391Z,89.2
2015-11-21T06:05:11.362Z,88.7
2015-11-21T06:06:11.272Z,88.5
2015-11-21T06:07:11.212Z,88.4
2015-11-21T06:08:11.402Z,88.7
2015-11-21T06:09:11.343Z,88.7
2015-11-21T06:10:11.049Z,87.9
2015-11-21T06:11:11.004Z,88.5
2015-11-21T06:12:10.929Z,87.9
2015-11-21T06:13:10.884Z,88.4
2015-11-21T06:14:10.824Z,88.1
2015-11-21T06:15:10.765Z,88.2
2015-11-21T06:16:10.704Z,88.2
2015-11-21T06:17:10.660Z,88
2015-11-21T06:18:10.632Z,87.7
2015-11-21T06:19:10.541Z,87.9
2015-11-21T06:20:11.075Z,87.8
2015-11-21T06:21:10.671Z,88.5
2015-11-21T06:22:10.362Z,88
2015-11-21T06:23:10.318Z,88.1
2015-11-21T06:24:10.259Z,88.5
2015-11-21T06:25:10.182Z,88.4
2015-11-21T06:26:10.154Z,88.7
2015-11-21T06:27:10.095Z,89.2
2015-11-21T06:28:10.128Z,88.2
2015-11-21T06:29:10.132Z,88.1
2015-11-21T06:30:09.915Z,88.1
2015-11-21T06:31:09.856Z,88.4
2015-11-21T06:32:09.796Z,88.6
2015-11-21T06:33:11.251Z,88.3
2015-11-21T06:34:09.692Z,88.4
2015-11-21T06:35:09.664Z,88.4
2015-11-21T06:36:09.572Z,88.7
2015-11-21T06:37:09.684Z,89.2
2015-11-21T06:38:09.547Z,88
2015-11-21T06:39:09.425Z,88
2015-11-21T06:40:09.364Z,88.2
2015-11-21T06:41:09.523Z,88.4
2015-11-21T06:42:09.229Z,88.9
2015-11-21T06:43:09.185Z,88.4
2015-11-21T06:44:09.125Z,88
2015-11-21T06:45:09.066Z,87.8
2015-11-21T06:46:09.006Z,88.3
2015-11-21T06:47:08.946Z,88.4
2015-11-21T06:48:08.917Z,88.8
2015-11-21T06:49:08.858Z,87.7
2015-11-21T06:50:08.783Z,87.9
2015-11-21T06:51:08.723Z,88.2
2015-11-21T06:52:08.678Z,88.4
2015-11-21T06:53:08.619Z,87.7
2015-11-21T06:54:08.558Z,87.3
2015-11-21T06:55:08.514Z,87.5
2015-11-21T06:56:08.455Z,88.1
2015-11-21T06:57:08.394Z,88
2015-11-21T06:58:08.616Z,88.3
2015-11-21T06:59:08.525Z,88.3
2015-11-21T07:00:08.216Z,87.6
2015-11-21T07:01:08.392Z,87.9
2015-11-21T07:02:08.113Z,87.9
2015-11-21T07:03:08.116Z,88
2015-11-21T07:04:07.994Z,88.2
2015-11-21T07:05:07.949Z,88.1
2015-11-21T07:06:07.871Z,88.5
2015-11-21T07:07:07.827Z,88.2
2015-11-21T07:08:07.782Z,88.1
2015-11-21T07:09:07.722Z,88.2
2015-11-21T07:10:07.647Z,88.1
2015-11-21T07:11:07.619Z,88.4
2015-11-21T07:12:07.543Z,88.3
2015-11-21T07:13:07.483Z,88
2015-11-21T07:14:07.424Z,88
2015-11-21T07:15:07.380Z,88.4
2015-11-21T07:16:07.319Z,88.3
2015-11-21T07:17:07.261Z,88.3
2015-11-21T07:18:07.450Z,88.5
2015-11-21T07:19:07.171Z,89.6
2015-11-21T07:20:07.080Z,89.6
2015-11-21T07:21:07.083Z,89.2
2015-11-21T07:22:06.977Z,89.4
2015-11-21T07:23:06.933Z,89.5
2015-11-21T07:24:06.888Z,89.6
2015-11-21T07:25:06.813Z,89.4
2015-11-21T07:26:06.753Z,89.2
2015-11-21T07:27:06.929Z,89.2
2015-11-21T07:28:06.649Z,89
2015-11-21T07:29:06.573Z,88.8
2015-11-21T07:30:06.546Z,88.6
2015-11-21T07:31:06.470Z,89.2
2015-11-21T07:32:06.457Z,89.1
2015-11-21T07:33:06.459Z,88.8
2015-11-21T07:34:06.306Z,88.8
2015-11-21T07:35:06.246Z,89.1
2015-11-21T07:36:06.187Z,88.2
2015-11-21T07:37:06.126Z,88.5
2015-11-21T07:38:06.067Z,88.4
2015-11-21T07:39:06.007Z,88.6
2015-11-21T07:40:05.964Z,88.7
2015-11-21T07:41:05.903Z,88.5
2015-11-21T07:42:05.859Z,88
2015-11-21T07:43:05.800Z,87.5
2015-11-21T07:44:05.740Z,88.5
2015-11-21T07:45:05.680Z,88.5
2015-11-21T07:46:05.620Z,88.8
2015-11-21T07:47:05.561Z,88.6
2015-11-21T07:48:05.751Z,88.3
2015-11-21T07:49:05.472Z,88.2
2015-11-21T07:50:05.397Z,88.4
2015-11-21T07:51:05.384Z,87.8
2015-11-21T07:52:05.292Z,88.5
2015-11-21T07:53:05.233Z,89
2015-11-21T07:54:05.173Z,88.6
2015-11-21T07:55:05.130Z,89
2015-11-21T07:56:05.069Z,88.5
2015-11-21T07:57:05.260Z,88.5
2015-11-21T07:58:04.966Z,88.9
2015-11-21T07:59:04.906Z,88.9
2015-11-21T08:00:04.861Z,88.6
2015-11-21T08:01:04.799Z,88.5
2015-11-21T08:02:04.712Z,88.4
2015-11-21T08:03:04.655Z,88.5
2015-11-21T08:04:04.583Z,88.3
2015-11-21T08:05:04.527Z,88.9
2015-11-21T08:06:04.442Z,89.1
2015-11-21T08:07:04.393Z,89.3
2015-11-21T08:08:04.329Z,89
2015-11-21T08:09:04.265Z,89.3
2015-11-21T08:10:04.217Z,89.3
2015-11-21T08:11:04.154Z,89.3
2015-11-21T08:12:04.093Z,88.4
2015-11-21T08:13:04.031Z,89
2015-11-21T08:14:03.985Z,89.4
2015-11-21T08:15:03.924Z,89.6
2015-11-21T08:16:03.861Z,89.3
2015-11-21T08:17:03.816Z,89
2015-11-21T08:18:04.007Z,88.7
2015-11-21T08:19:03.712Z,88.5
2015-11-21T08:20:03.871Z,88.1
2015-11-21T08:21:03.591Z,89
2015-11-21T08:22:03.547Z,88.9
2015-11-21T08:23:03.518Z,88.8
2015-11-21T08:24:03.411Z,88.3
2015-11-21T08:25:03.413Z,88.2
2015-11-21T08:26:03.307Z,88.9
2015-11-21T08:27:03.262Z,88.6
2015-11-21T08:28:03.203Z,87.8
2015-11-21T08:29:03.142Z,87.8
2015-11-21T08:30:03.098Z,88.9
2015-11-21T08:31:03.039Z,88.8
2015-11-21T08:32:02.963Z,88.8
2015-11-21T08:33:02.934Z,89
2015-11-21T08:34:02.859Z,89.5
2015-11-21T08:35:02.800Z,89.3
2015-11-21T08:36:02.755Z,89.5
2015-11-21T08:37:02.711Z,90.2
2015-11-21T08:38:02.636Z,90.6
2015-11-21T08:39:02.576Z,91
2015-11-21T08:40:02.766Z,91.6
2015-11-21T08:41:02.456Z,92.5
2015-11-21T08:42:02.412Z,92.2
2015-11-21T08:43:02.337Z,92.1
2015-11-21T08:44:02.293Z,92.1
2015-11-21T08:45:02.233Z,91
2015-11-21T08:46:02.173Z,90.9
2015-11-21T08:47:02.114Z,92
2015-11-21T08:48:02.085Z,92.7
2015-11-21T08:49:01.994Z,93.8
2015-11-21T08:50:02.028Z,92.9
2015-11-21T08:51:01.890Z,93.6
2015-11-21T08:52:01.831Z,93.3
2015-11-21T08:53:01.771Z,93.2
2015-11-21T08:54:01.727Z,93.7
2015-11-21T08:55:01.667Z,93.6
2015-11-21T08:56:01.607Z,93.6
2015-11-21T08:57:01.547Z,93.8
2015-11-21T08:58:01.487Z,94.3
2015-11-21T08:59:01.443Z,94.6
2015-11-21T09:00:01.383Z,94.8
2015-11-21T09:01:01.340Z,95.2
2015-11-21T09:02:01.279Z,94.8
2015-11-21T09:03:01.204Z,95.3
2015-11-21T09:04:01.144Z,95.1
2015-11-21T09:05:01.101Z,94.5
2015-11-21T09:06:01.040Z,95.4
2015-11-21T09:07:00.981Z,94.4
2015-11-21T09:08:00.921Z,94.4
2015-11-21T09:09:00.876Z,93.8
2015-11-21T09:10:00.817Z,94.3
2015-11-21T09:11:00.757Z,94.5
2015-11-21T09:12:00.713Z,94.1
2015-11-21T09:13:00.653Z,94.4
2015-11-21T09:14:00.609Z,94.3
2015-11-21T09:15:00.596Z,94.4
2015-11-21T09:16:00.489Z,94.2
2015-11-21T09:17:00.445Z,94.1
2015-11-21T09:18:00.370Z,94.7
2015-11-21T09:19:00.326Z,94.8
2015-11-21T09:20:00.251Z,94.6
2015-11-21T09:21:00.190Z,94.4
2015-11-21T09:22:00.147Z,94.2
2015-11-21T09:23:00.086Z,94.3
2015-11-21T09:24:00.042Z,94.3
2015-11-21T09:24:59.983Z,94.1
2015-11-21T09:25:59.939Z,93.7
2015-11-21T09:26:59.861Z,93
2015-11-21T09:27:59.800Z,93.1
2015-11-21T09:28:59.756Z,93.6
2015-11-21T09:29:59.697Z,93.6
2015-11-21T09:30:59.636Z,92.5
2015-11-21T09:31:59.577Z,93.9
2015-11-21T09:32:59.549Z,93.3
2015-11-21T09:33:59.473Z,93.7
2015-11-21T09:34:59.414Z,94
2015-11-21T09:35:59.353Z,93.3
2015-11-21T09:36:59.294Z,93.4
2015-11-21T09:37:59.250Z,94.2
2015-11-21T09:38:59.205Z,93.3
2015-11-21T09:39:59.130Z,93.2
2015-11-21T09:40:59.071Z,93.5
2015-11-21T09:41:59.010Z,94
2015-11-21T09:42:58.967Z,92.8
2015-11-21T09:43:58.907Z,91.4
2015-11-21T09:44:58.910Z,93.4
2015-11-21T09:45:58.788Z,93.3
2015-11-21T09:46:58.727Z,92.8
2015-11-21T09:47:58.683Z,92.5
2015-11-21T09:48:58.624Z,93
2015-11-21T09:49:58.564Z,94
2015-11-21T09:50:58.504Z,93.5
2015-11-21T09:51:58.694Z,94
2015-11-21T09:52:58.416Z,92.9
2015-11-21T09:53:58.340Z,93
2015-11-21T09:54:58.296Z,92.6
2015-11-21T09:55:58.080Z,91.3
2015-11-21T09:56:58.193Z,91
2015-11-21T09:57:58.132Z,92.3
2015-11-21T09:58:58.057Z,92.8
2015-11-21T09:59:58.013Z,92.3
2015-11-21T10:00:57.954Z,92.1
2015-11-21T10:01:57.893Z,91.7
2015-11-21T10:02:57.849Z,91.8
2015-11-21T10:03:57.789Z,92
2015-11-21T10:04:57.729Z,91.6
2015-11-21T10:05:57.685Z,91.5
2015-11-21T10:06:57.626Z,91.1
2015-11-21T10:07:57.565Z,91.3
2015-11-21T10:08:57.522Z,90.6
2015-11-21T10:09:57.462Z,90.8
2015-11-21T10:10:57.402Z,91.4
2015-11-21T10:11:57.342Z,91.6
2015-11-21T10:12:57.283Z,90.9
2015-11-21T10:13:57.239Z,91.6
2015-11-21T10:14:57.179Z,90.4
2015-11-21T10:15:57.135Z,91.3
2015-11-21T10:16:57.059Z,92.4
2015-11-21T10:17:57.015Z,92.6
2015-11-21T10:18:56.956Z,91.8
2015-11-21T10:19:56.911Z,91.4
2015-11-21T10:20:56.852Z,92.3
2015-11-21T10:21:56.776Z,92.6
2015-11-21T10:22:56.592Z,92.3
2015-11-21T10:23:56.672Z,92.5
2015-11-21T10:24:56.628Z,91
2015-11-21T10:25:56.552Z,89.7
2015-11-21T10:26:56.539Z,90.6
2015-11-21T10:27:56.542Z,91.8
2015-11-21T10:28:56.389Z,92
2015-11-21T10:29:56.564Z,91.6
2015-11-21T10:30:56.283Z,91.5
2015-11-21T10:31:56.269Z,92.6
2015-11-21T10:32:55.413Z,92.2
2015-11-21T10:33:56.197Z,91.3
2015-11-21T10:34:56.293Z,91.4
2015-11-21T10:35:56.203Z,91.7
2015-11-21T10:36:55.939Z,92.1
2015-11-21T10:37:55.880Z,92.4
2015-11-21T10:38:55.835Z,91.8
2015-11-21T10:39:55.775Z,92.1
2015-11-21T10:40:55.732Z,92.4
2015-11-21T10:41:55.891Z,92.7
2015-11-21T10:42:55.659Z,90.9
2015-11-21T10:43:55.552Z,90.6
2015-11-21T10:44:55.493Z,89.8
2015-11-21T10:45:55.432Z,90.1
2015-11-21T10:46:55.389Z,90.9
2015-11-21T10:47:55.313Z,90.4
2015-11-21T10:48:55.254Z,91.8
2015-11-21T10:49:55.443Z,90.5
2015-11-21T10:50:55.149Z,91.3
2015-11-21T10:51:55.105Z,91.3
2015-11-21T10:52:55.029Z,90.5
2015-11-21T10:53:54.985Z,90.6
2015-11-21T10:54:55.160Z,90.2
2015-11-21T10:55:54.882Z,90.9
2015-11-21T10:56:54.884Z,89.6
2015-11-21T10:57:54.762Z,90.4
2015-11-21T10:58:54.702Z,89.5
2015-11-21T10:59:54.659Z,91.2
2015-11-21T11:00:54.599Z,90.9
2015-11-21T11:01:54.773Z,91
2015-11-21T11:02:54.479Z,90.5
2015-11-21T11:03:54.420Z,90.6
2015-11-21T11:04:54.376Z,91
2015-11-21T11:05:54.315Z,91
2015-11-21T11:06:54.271Z,90.5
2015-11-21T11:07:54.196Z,90
2015-11-21T11:08:54.183Z,90.4
2015-11-21T11:09:54.107Z,89.7
2015-11-21T11:10:54.267Z,90.5
2015-11-21T11:11:53.973Z,90.2
2015-11-21T11:12:53.959Z,90.8
2015-11-21T11:13:53.947Z,91.2
2015-11-21T11:14:53.809Z,90.8
2015-11-21T11:15:53.749Z,90.5
2015-11-21T11:16:53.705Z,89.9
2015-11-21T11:17:53.661Z,89.7
2015-11-21T11:18:53.586Z,90
2015-11-21T11:19:53.526Z,90.2
2015-11-21T11:20:53.466Z,91
2015-11-21T11:21:53.406Z,89.8
2015-11-21T11:22:53.361Z,90.6
2015-11-21T11:23:53.303Z,91.3
2015-11-21T11:24:53.242Z,91.4
2015-11-21T11:25:53.183Z,91.3
2015-11-21T11:26:53.138Z,91.1
2015-11-21T11:27:53.142Z,91.1
2015-11-21T11:28:53.034Z,90.7
2015-11-21T11:29:53.037Z,90.6
2015-11-21T11:30:52.914Z,90.4
2015-11-21T11:31:52.852Z,91
2015-11-21T11:32:52.808Z,90.3
2015-11-21T11:33:52.749Z,90.5
2015-11-21T11:34:52.688Z,90.2
2015-11-21T11:35:52.629Z,90.2
2015-11-21T11:36:52.663Z,90
2015-11-21T11:37:52.572Z,89.8
2015-11-21T11:38:52.480Z,90.4
2015-11-21T11:39:52.405Z,90.5
2015-11-21T11:40:52.361Z,90.8
2015-11-21T11:41:52.301Z,90.6
2015-11-21T11:42:52.257Z,91.4
2015-11-21T11:43:52.197Z,89.8
2015-11-21T11:44:52.122Z,89.1
2015-11-21T11:45:52.078Z,89.3
2015-11-21T11:46:52.018Z,89.5
2015-11-21T11:47:51.975Z,89.9
2015-11-21T11:48:51.946Z,89.8
2015-11-21T11:49:51.839Z,87.2
2015-11-21T11:50:51.796Z,87
2015-11-21T11:51:51.735Z,87
2015-11-21T11:52:51.676Z,88
2015-11-21T11:53:51.646Z,87.4
2015-11-21T11:54:51.571Z,86.6
2015-11-21T11:55:51.512Z,86.1
2015-11-21T11:56:51.451Z,86.4
2015-11-21T11:57:51.407Z,85.8
2015-11-21T11:58:51.363Z,86
2015-11-21T11:59:51.304Z,85.9
2015-11-21T12:00:51.228Z,85.4
2015-11-21T12:01:51.185Z,86.3
2015-11-21T12:02:51.110Z,86.2
2015-11-21T12:03:51.112Z,85.9
2015-11-21T12:04:51.239Z,85.3
2015-11-21T12:05:50.961Z,85.8
2015-11-21T12:06:50.901Z,85.5
2015-11-21T12:07:50.842Z,84.6
2015-11-21T12:08:50.782Z,85.7
2015-11-21T12:09:50.972Z,84.7
2015-11-21T12:10:50.678Z,83.4
2015-11-21T12:11:50.853Z,83.4
2015-11-21T12:12:50.558Z,84.8
2015-11-21T12:13:50.498Z,84.3
2015-11-21T12:14:50.486Z,83.4
2015-11-21T12:15:50.395Z,82.8
2015-11-21T12:16:50.334Z,82.4
2015-11-21T12:17:50.259Z,81.8
2015-11-21T12:18:50.247Z,83.1
2015-11-21T12:19:50.390Z,83.5
2015-11-21T12:20:50.111Z,81.8
2015-11-21T12:21:50.051Z,82
2015-11-21T12:22:49.991Z,82.8
2015-11-21T12:23:49.931Z,82.5
2015-11-21T12:24:49.872Z,82.9
2015-11-21T12:25:49.828Z,82.2
2015-11-21T12:26:49.799Z,81.7
2015-11-21T12:28:49.649Z,82.7
2015-11-21T12:29:49.605Z,83.6
2015-11-21T12:30:49.545Z,82.1
2015-11-21T12:31:49.483Z,81.8
2015-11-21T12:32:49.438Z,82.4
2015-11-21T12:33:49.378Z,82
2015-11-21T12:34:49.319Z,82.6
2015-11-21T12:35:49.258Z,82.4
2015-11-21T12:36:49.199Z,81.6
2015-11-21T12:37:49.217Z,81.2
2015-11-21T12:38:49.094Z,81.4
2015-11-21T12:39:49.035Z,80.8
2015-11-21T12:40:48.975Z,79.9
2015-11-21T12:41:48.932Z,81.2
2015-11-21T12:42:49.106Z,81.2
2015-11-21T12:43:48.812Z,81.2
2015-11-21T12:44:48.752Z,78.9
2015-11-21T12:45:48.802Z,79.8
2015-11-21T12:46:48.680Z,80.9
2015-11-21T12:47:48.588Z,80.1
2015-11-21T12:48:48.529Z,79.1
2015-11-21T12:49:48.469Z,79.5
2015-11-21T12:50:48.409Z,80.2
2015-11-21T12:51:48.349Z,79.4
2015-11-21T12:52:48.289Z,79.2
2015-11-21T12:53:48.246Z,78.4
2015-11-21T12:54:48.185Z,75.5
2015-11-21T12:55:49.345Z,75.1
2015-11-21T12:56:48.097Z,76.4
2015-11-21T12:57:48.022Z,75.9
2015-11-21T12:58:47.837Z,75.5
2015-11-21T12:59:47.904Z,75.7
2015-11-21T13:00:48.094Z,75.9
2015-11-21T13:01:47.862Z,75.5
2015-11-21T13:02:47.740Z,75.7
2015-11-21T13:03:47.712Z,76.3
2015-11-21T13:04:47.637Z,75.9
2015-11-21T13:05:47.577Z,77.6
2015-11-21T13:06:47.533Z,78.1
2015-11-21T13:07:47.489Z,78.1
2015-11-21T13:08:47.428Z,78.5
2015-11-21T13:09:47.353Z,79.2
2015-11-21T13:10:47.325Z,80
2015-11-21T13:11:47.281Z,78.9
2015-11-21T13:12:47.424Z,79.7
2015-11-21T13:13:47.145Z,77.3
2015-11-21T13:14:47.086Z,78.7
2015-11-21T13:15:47.025Z,77.7
2015-11-21T13:16:46.983Z,79
2015-11-21T13:17:46.906Z,79.1
2015-11-21T13:18:47.065Z,79.4
2015-11-21T13:19:46.802Z,77.9
2015-11-21T13:20:46.743Z,78.3
2015-11-21T13:21:46.886Z,78.6
2015-11-21T13:22:46.624Z,78
2015-11-21T13:23:46.579Z,78.4
2015-11-21T13:24:46.519Z,77.2